Ocean Bay Park, New York
Current Conditions -  °F | °C
As of 8:56 PM on Friday 28 Nov 2014 (Local Time) from KISP Reporting Station
Clear Clear  
Wind Chill: 22°   Ceiling: Unl
Heat Index: 28°   Visibility: 10mi
Dew Point: 14°   Wind: 6mph
Humidity: 56%   Direction: 300°WNW
Pressure: 30.23"   Gusts: NA
Location:  40.6448°N, 73.1603°W
Report Text: KISP 290156Z 30005KT 10SM CLR M02/M10 A3023 RMK AO2 SLP238 T10221100
Loading
Personal Weather Stations






























Interactive Weather Map New forecast layout! Learn more

10-Day Weather Forecast

Advertisements
Track Severe Weather on mobile